sensor_id;sensor_type;location;lat;lon;timestamp;P1;durP1;ratioP1;P2;durP2;ratioP2
79790;SDS011;69278;52.220;5.172;2024-03-02T00:00:07;3.03;;;1.80;;
79790;SDS011;69278;52.220;5.172;2024-03-02T00:02:44;4.55;;;1.80;;
79790;SDS011;69278;52.220;5.172;2024-03-02T00:05:12;2.53;;;1.52;;
79790;SDS011;69278;52.220;5.172;2024-03-02T00:07:42;3.25;;;1.65;;
79790;SDS011;69278;52.220;5.172;2024-03-02T00:10:10;2.90;;;1.65;;
79790;SDS011;69278;52.220;5.172;2024-03-02T00:12:41;4.07;;;1.50;;
79790;SDS011;69278;52.220;5.172;2024-03-02T00:18:09;4.00;;;1.60;;
79790;SDS011;69278;52.220;5.172;2024-03-02T00:20:38;3.05;;;1.67;;
79790;SDS011;69278;52.220;5.172;2024-03-02T00:23:05;6.35;;;1.70;;
79790;SDS011;69278;52.220;5.172;2024-03-02T00:25:40;2.97;;;1.85;;
79790;SDS011;69278;52.220;5.172;2024-03-02T00:28:13;2.90;;;1.42;;
79790;SDS011;69278;52.220;5.172;2024-03-02T00:33:10;1.70;;;1.10;;
79790;SDS011;69278;52.220;5.172;2024-03-02T00:35:37;2.30;;;1.08;;
79790;SDS011;69278;52.220;5.172;2024-03-02T00:38:06;1.40;;;0.73;;
79790;SDS011;69278;52.220;5.172;2024-03-02T00:40:33;1.00;;;0.70;;
79790;SDS011;69278;52.220;5.172;2024-03-02T00:42:59;1.10;;;0.88;;
79790;SDS011;69278;52.220;5.172;2024-03-02T00:45:27;1.10;;;0.80;;
79790;SDS011;69278;52.220;5.172;2024-03-02T00:47:54;0.90;;;0.70;;
79790;SDS011;69278;52.220;5.172;2024-03-02T00:50:21;1.15;;;0.80;;
79790;SDS011;69278;52.220;5.172;2024-03-02T00:52:56;1.15;;;0.82;;
79790;SDS011;69278;52.220;5.172;2024-03-02T00:55:22;1.25;;;0.88;;
79790;SDS011;69278;52.220;5.172;2024-03-02T00:57:49;1.50;;;0.90;;
79790;SDS011;69278;52.220;5.172;2024-03-02T01:00:15;1.63;;;1.00;;
79790;SDS011;69278;52.220;5.172;2024-03-02T01:02:44;1.13;;;0.70;;
79790;SDS011;69278;52.220;5.172;2024-03-02T01:05:12;1.23;;;0.80;;
79790;SDS011;69278;52.220;5.172;2024-03-02T01:07:39;1.27;;;0.80;;
79790;SDS011;69278;52.220;5.172;2024-03-02T01:10:06;1.08;;;0.80;;
79790;SDS011;69278;52.220;5.172;2024-03-02T01:12:32;1.30;;;1.00;;
79790;SDS011;69278;52.220;5.172;2024-03-02T01:15:00;1.10;;;0.90;;
79790;SDS011;69278;52.220;5.172;2024-03-02T01:17:26;1.50;;;0.80;;
79790;SDS011;69278;52.220;5.172;2024-03-02T01:19:53;1.00;;;0.85;;
79790;SDS011;69278;52.220;5.172;2024-03-02T01:22:19;1.20;;;0.88;;
79790;SDS011;69278;52.220;5.172;2024-03-02T01:24:51;1.98;;;0.95;;
79790;SDS011;69278;52.220;5.172;2024-03-02T01:27:18;1.13;;;0.70;;
79790;SDS011;69278;52.220;5.172;2024-03-02T01:29:45;1.23;;;1.00;;
79790;SDS011;69278;52.220;5.172;2024-03-02T01:32:11;1.05;;;0.73;;
79790;SDS011;69278;52.220;5.172;2024-03-02T01:34:38;1.83;;;1.08;;
79790;SDS011;69278;52.220;5.172;2024-03-02T01:37:04;1.50;;;1.00;;
79790;SDS011;69278;52.220;5.172;2024-03-02T01:39:31;1.20;;;0.90;;
79790;SDS011;69278;52.220;5.172;2024-03-02T01:41:57;1.20;;;0.90;;
79790;SDS011;69278;52.220;5.172;2024-03-02T01:44:24;1.90;;;1.00;;
79790;SDS011;69278;52.220;5.172;2024-03-02T01:46:51;1.45;;;1.10;;
79790;SDS011;69278;52.220;5.172;2024-03-02T01:49:17;2.17;;;0.85;;
79790;SDS011;69278;52.220;5.172;2024-03-02T01:51:45;2.28;;;1.00;;
79790;SDS011;69278;52.220;5.172;2024-03-02T01:54:12;1.13;;;0.80;;
79790;SDS011;69278;52.220;5.172;2024-03-02T01:56:39;1.40;;;1.02;;
79790;SDS011;69278;52.220;5.172;2024-03-02T01:59:05;1.75;;;1.00;;
79790;SDS011;69278;52.220;5.172;2024-03-02T02:01:32;1.63;;;0.80;;
79790;SDS011;69278;52.220;5.172;2024-03-02T02:03:59;1.70;;;1.00;;
79790;SDS011;69278;52.220;5.172;2024-03-02T02:06:26;1.50;;;0.93;;
79790;SDS011;69278;52.220;5.172;2024-03-02T02:08:52;1.35;;;0.90;;
79790;SDS011;69278;52.220;5.172;2024-03-02T02:11:19;1.33;;;1.10;;
79790;SDS011;69278;52.220;5.172;2024-03-02T02:13:46;1.30;;;0.93;;
79790;SDS011;69278;52.220;5.172;2024-03-02T02:16:12;1.20;;;0.90;;
79790;SDS011;69278;52.220;5.172;2024-03-02T02:18:39;1.20;;;1.00;;
79790;SDS011;69278;52.220;5.172;2024-03-02T02:21:05;1.77;;;1.08;;
79790;SDS011;69278;52.220;5.172;2024-03-02T02:23:32;1.85;;;1.08;;
79790;SDS011;69278;52.220;5.172;2024-03-02T02:25:58;1.38;;;1.00;;
79790;SDS011;69278;52.220;5.172;2024-03-02T02:28:25;1.45;;;0.88;;
79790;SDS011;69278;52.220;5.172;2024-03-02T02:30:51;1.85;;;1.10;;
79790;SDS011;69278;52.220;5.172;2024-03-02T02:33:19;1.60;;;1.00;;
79790;SDS011;69278;52.220;5.172;2024-03-02T02:35:46;2.17;;;1.15;;
79790;SDS011;69278;52.220;5.172;2024-03-02T02:38:12;1.70;;;1.00;;
79790;SDS011;69278;52.220;5.172;2024-03-02T02:40:39;1.90;;;1.02;;
79790;SDS011;69278;52.220;5.172;2024-03-02T02:43:05;1.67;;;0.85;;
79790;SDS011;69278;52.220;5.172;2024-03-02T02:45:33;1.45;;;1.02;;
79790;SDS011;69278;52.220;5.172;2024-03-02T02:47:59;1.20;;;0.90;;
79790;SDS011;69278;52.220;5.172;2024-03-02T02:50:28;1.63;;;1.10;;
79790;SDS011;69278;52.220;5.172;2024-03-02T02:52:54;2.17;;;0.90;;
79790;SDS011;69278;52.220;5.172;2024-03-02T02:55:21;1.73;;;1.17;;
79790;SDS011;69278;52.220;5.172;2024-03-02T02:57:47;1.40;;;1.00;;
79790;SDS011;69278;52.220;5.172;2024-03-02T03:00:14;1.70;;;1.10;;
79790;SDS011;69278;52.220;5.172;2024-03-02T03:02:45;1.90;;;1.20;;
79790;SDS011;69278;52.220;5.172;2024-03-02T03:05:14;1.65;;;1.00;;
79790;SDS011;69278;52.220;5.172;2024-03-02T03:07:42;2.20;;;1.10;;
79790;SDS011;69278;52.220;5.172;2024-03-02T03:10:10;2.95;;;1.30;;
79790;SDS011;69278;52.220;5.172;2024-03-02T03:12:37;1.90;;;1.20;;
79790;SDS011;69278;52.220;5.172;2024-03-02T03:15:03;2.35;;;1.00;;
79790;SDS011;69278;52.220;5.172;2024-03-02T03:17:35;1.55;;;1.05;;
79790;SDS011;69278;52.220;5.172;2024-03-02T03:20:02;2.83;;;1.15;;
79790;SDS011;69278;52.220;5.172;2024-03-02T03:22:30;1.80;;;1.08;;
79790;SDS011;69278;52.220;5.172;2024-03-02T03:24:57;1.85;;;1.20;;
79790;SDS011;69278;52.220;5.172;2024-03-02T03:27:24;1.77;;;0.98;;
79790;SDS011;69278;52.220;5.172;2024-03-02T03:29:50;2.88;;;1.20;;
79790;SDS011;69278;52.220;5.172;2024-03-02T03:32:17;1.48;;;0.80;;
79790;SDS011;69278;52.220;5.172;2024-03-02T03:34:44;1.65;;;1.08;;
79790;SDS011;69278;52.220;5.172;2024-03-02T03:37:10;1.65;;;1.13;;
79790;SDS011;69278;52.220;5.172;2024-03-02T03:39:37;1.50;;;1.00;;
79790;SDS011;69278;52.220;5.172;2024-03-02T03:42:03;2.35;;;1.10;;
79790;SDS011;69278;52.220;5.172;2024-03-02T03:44:30;2.00;;;0.98;;
79790;SDS011;69278;52.220;5.172;2024-03-02T03:46:57;1.83;;;0.95;;
79790;SDS011;69278;52.220;5.172;2024-03-02T03:49:23;3.22;;;1.08;;
79790;SDS011;69278;52.220;5.172;2024-03-02T03:51:50;1.63;;;1.02;;
79790;SDS011;69278;52.220;5.172;2024-03-02T03:54:17;1.65;;;0.90;;
79790;SDS011;69278;52.220;5.172;2024-03-02T03:56:43;1.88;;;0.90;;
79790;SDS011;69278;52.220;5.172;2024-03-02T03:59:10;1.73;;;1.00;;
79790;SDS011;69278;52.220;5.172;2024-03-02T04:01:37;2.13;;;1.10;;
79790;SDS011;69278;52.220;5.172;2024-03-02T04:04:03;2.22;;;0.98;;
79790;SDS011;69278;52.220;5.172;2024-03-02T04:06:30;4.20;;;1.00;;
79790;SDS011;69278;52.220;5.172;2024-03-02T04:08:57;2.70;;;0.90;;
79790;SDS011;69278;52.220;5.172;2024-03-02T04:11:23;1.52;;;0.95;;
79790;SDS011;69278;52.220;5.172;2024-03-02T04:13:50;1.52;;;1.00;;
79790;SDS011;69278;52.220;5.172;2024-03-02T04:16:17;1.60;;;1.10;;
79790;SDS011;69278;52.220;5.172;2024-03-02T04:18:43;2.78;;;1.10;;
79790;SDS011;69278;52.220;5.172;2024-03-02T04:21:10;1.52;;;0.90;;
79790;SDS011;69278;52.220;5.172;2024-03-02T04:23:37;1.67;;;0.90;;
79790;SDS011;69278;52.220;5.172;2024-03-02T04:26:04;1.33;;;0.90;;
79790;SDS011;69278;52.220;5.172;2024-03-02T04:28:31;2.35;;;1.00;;
79790;SDS011;69278;52.220;5.172;2024-03-02T04:30:57;1.20;;;1.00;;
79790;SDS011;69278;52.220;5.172;2024-03-02T04:33:24;1.83;;;1.00;;
79790;SDS011;69278;52.220;5.172;2024-03-02T04:35:50;2.95;;;1.02;;
79790;SDS011;69278;52.220;5.172;2024-03-02T04:38:17;1.45;;;0.90;;
79790;SDS011;69278;52.220;5.172;2024-03-02T04:40:43;1.80;;;1.08;;
79790;SDS011;69278;52.220;5.172;2024-03-02T04:43:10;2.00;;;1.15;;
79790;SDS011;69278;52.220;5.172;2024-03-02T04:45:37;1.65;;;1.20;;
79790;SDS011;69278;52.220;5.172;2024-03-02T04:48:04;2.47;;;1.08;;
79790;SDS011;69278;52.220;5.172;2024-03-02T04:50:31;1.45;;;0.90;;
79790;SDS011;69278;52.220;5.172;2024-03-02T04:52:57;1.38;;;1.00;;
79790;SDS011;69278;52.220;5.172;2024-03-02T04:55:24;1.88;;;0.98;;
79790;SDS011;69278;52.220;5.172;2024-03-02T04:57:53;1.50;;;1.10;;
79790;SDS011;69278;52.220;5.172;2024-03-02T05:00:22;2.00;;;1.10;;
79790;SDS011;69278;52.220;5.172;2024-03-02T05:02:50;4.15;;;1.10;;
79790;SDS011;69278;52.220;5.172;2024-03-02T05:05:17;1.42;;;1.17;;
79790;SDS011;69278;52.220;5.172;2024-03-02T05:07:44;1.88;;;1.00;;
79790;SDS011;69278;52.220;5.172;2024-03-02T05:10:10;1.02;;;0.82;;
79790;SDS011;69278;52.220;5.172;2024-03-02T05:12:41;1.52;;;1.00;;
79790;SDS011;69278;52.220;5.172;2024-03-02T05:15:12;1.88;;;0.90;;
79790;SDS011;69278;52.220;5.172;2024-03-02T05:17:40;1.42;;;0.90;;
79790;SDS011;69278;52.220;5.172;2024-03-02T05:20:10;3.05;;;1.10;;
79790;SDS011;69278;52.220;5.172;2024-03-02T05:22:37;1.75;;;1.00;;
79790;SDS011;69278;52.220;5.172;2024-03-02T05:25:04;1.40;;;1.00;;
79790;SDS011;69278;52.220;5.172;2024-03-02T05:27:31;2.67;;;1.00;;
79790;SDS011;69278;52.220;5.172;2024-03-02T05:29:59;1.30;;;0.98;;
79790;SDS011;69278;52.220;5.172;2024-03-02T05:32:26;1.35;;;1.05;;
79790;SDS011;69278;52.220;5.172;2024-03-02T05:34:53;2.20;;;1.08;;
79790;SDS011;69278;52.220;5.172;2024-03-02T05:37:19;1.50;;;1.10;;
79790;SDS011;69278;52.220;5.172;2024-03-02T05:39:46;2.00;;;0.90;;
79790;SDS011;69278;52.220;5.172;2024-03-02T05:42:12;1.77;;;1.00;;
79790;SDS011;69278;52.220;5.172;2024-03-02T05:44:39;1.38;;;1.00;;
79790;SDS011;69278;52.220;5.172;2024-03-02T05:47:05;3.63;;;1.10;;
79790;SDS011;69278;52.220;5.172;2024-03-02T05:49:35;1.98;;;1.05;;
79790;SDS011;69278;52.220;5.172;2024-03-02T05:52:01;1.52;;;0.90;;
79790;SDS011;69278;52.220;5.172;2024-03-02T05:54:29;1.77;;;1.08;;
79790;SDS011;69278;52.220;5.172;2024-03-02T05:56:55;2.05;;;1.10;;
79790;SDS011;69278;52.220;5.172;2024-03-02T05:59:22;2.05;;;1.00;;
79790;SDS011;69278;52.220;5.172;2024-03-02T06:01:48;1.60;;;1.00;;
79790;SDS011;69278;52.220;5.172;2024-03-02T06:04:18;2.05;;;1.00;;
79790;SDS011;69278;52.220;5.172;2024-03-02T06:06:45;1.58;;;1.10;;
79790;SDS011;69278;52.220;5.172;2024-03-02T06:09:11;1.33;;;1.00;;
79790;SDS011;69278;52.220;5.172;2024-03-02T06:11:40;2.08;;;0.95;;
79790;SDS011;69278;52.220;5.172;2024-03-02T06:14:08;2.42;;;1.00;;
79790;SDS011;69278;52.220;5.172;2024-03-02T06:16:35;1.60;;;1.17;;
79790;SDS011;69278;52.220;5.172;2024-03-02T06:19:01;1.70;;;1.02;;
79790;SDS011;69278;52.220;5.172;2024-03-02T06:21:28;2.17;;;1.20;;
79790;SDS011;69278;52.220;5.172;2024-03-02T06:23:55;1.90;;;1.00;;
79790;SDS011;69278;52.220;5.172;2024-03-02T06:26:23;1.10;;;0.98;;
79790;SDS011;69278;52.220;5.172;2024-03-02T06:28:51;3.75;;;1.30;;
79790;SDS011;69278;52.220;5.172;2024-03-02T06:31:18;2.33;;;1.10;;
79790;SDS011;69278;52.220;5.172;2024-03-02T06:33:45;1.65;;;1.00;;
79790;SDS011;69278;52.220;5.172;2024-03-02T06:36:12;3.17;;;1.10;;
79790;SDS011;69278;52.220;5.172;2024-03-02T06:38:38;1.95;;;0.90;;
79790;SDS011;69278;52.220;5.172;2024-03-02T06:41:09;1.10;;;0.90;;
79790;SDS011;69278;52.220;5.172;2024-03-02T06:43:36;1.98;;;0.80;;
79790;SDS011;69278;52.220;5.172;2024-03-02T06:46:02;1.45;;;0.80;;
79790;SDS011;69278;52.220;5.172;2024-03-02T06:48:29;2.20;;;1.00;;
79790;SDS011;69278;52.220;5.172;2024-03-02T06:50:56;1.70;;;1.00;;
79790;SDS011;69278;52.220;5.172;2024-03-02T06:53:24;1.90;;;1.13;;
79790;SDS011;69278;52.220;5.172;2024-03-02T06:55:51;1.58;;;1.10;;
79790;SDS011;69278;52.220;5.172;2024-03-02T06:58:18;2.08;;;1.15;;
79790;SDS011;69278;52.220;5.172;2024-03-02T07:00:44;1.63;;;1.00;;
79790;SDS011;69278;52.220;5.172;2024-03-02T07:03:11;2.05;;;1.10;;
79790;SDS011;69278;52.220;5.172;2024-03-02T07:05:38;1.77;;;1.00;;
79790;SDS011;69278;52.220;5.172;2024-03-02T07:08:05;2.38;;;1.13;;
79790;SDS011;69278;52.220;5.172;2024-03-02T07:10:32;2.35;;;1.00;;
79790;SDS011;69278;52.220;5.172;2024-03-02T07:12:58;4.13;;;1.30;;
79790;SDS011;69278;52.220;5.172;2024-03-02T07:15:25;1.77;;;1.00;;
79790;SDS011;69278;52.220;5.172;2024-03-02T07:18:10;2.42;;;1.20;;
79790;SDS011;69278;52.220;5.172;2024-03-02T07:20:37;3.67;;;1.10;;
79790;SDS011;69278;52.220;5.172;2024-03-02T07:23:05;2.45;;;1.20;;
79790;SDS011;69278;52.220;5.172;2024-03-02T07:25:32;3.10;;;1.10;;
79790;SDS011;69278;52.220;5.172;2024-03-02T07:28:02;2.60;;;1.00;;
79790;SDS011;69278;52.220;5.172;2024-03-02T07:30:29;2.45;;;1.10;;
79790;SDS011;69278;52.220;5.172;2024-03-02T07:32:59;1.88;;;1.10;;
79790;SDS011;69278;52.220;5.172;2024-03-02T07:35:26;4.75;;;1.10;;
79790;SDS011;69278;52.220;5.172;2024-03-02T07:37:54;2.05;;;1.00;;
79790;SDS011;69278;52.220;5.172;2024-03-02T07:40:21;2.90;;;1.08;;
79790;SDS011;69278;52.220;5.172;2024-03-02T07:42:48;1.75;;;0.90;;
79790;SDS011;69278;52.220;5.172;2024-03-02T07:45:14;2.00;;;1.00;;
79790;SDS011;69278;52.220;5.172;2024-03-02T07:47:41;1.67;;;1.00;;
79790;SDS011;69278;52.220;5.172;2024-03-02T07:50:08;1.50;;;1.10;;
79790;SDS011;69278;52.220;5.172;2024-03-02T07:52:35;1.58;;;0.90;;
79790;SDS011;69278;52.220;5.172;2024-03-02T07:55:02;1.77;;;1.02;;
79790;SDS011;69278;52.220;5.172;2024-03-02T07:57:28;2.92;;;1.00;;
79790;SDS011;69278;52.220;5.172;2024-03-02T07:59:55;2.35;;;1.20;;
79790;SDS011;69278;52.220;5.172;2024-03-02T08:02:21;2.35;;;1.10;;
79790;SDS011;69278;52.220;5.172;2024-03-02T08:04:48;2.53;;;1.17;;
79790;SDS011;69278;52.220;5.172;2024-03-02T08:07:14;5.07;;;1.10;;
79790;SDS011;69278;52.220;5.172;2024-03-02T08:09:41;2.72;;;1.20;;
79790;SDS011;69278;52.220;5.172;2024-03-02T08:12:08;1.52;;;1.00;;
79790;SDS011;69278;52.220;5.172;2024-03-02T08:14:34;2.25;;;1.10;;
79790;SDS011;69278;52.220;5.172;2024-03-02T08:17:01;2.45;;;0.80;;
79790;SDS011;69278;52.220;5.172;2024-03-02T08:19:28;1.55;;;1.00;;
79790;SDS011;69278;52.220;5.172;2024-03-02T08:21:55;1.90;;;1.10;;
79790;SDS011;69278;52.220;5.172;2024-03-02T08:24:22;2.15;;;1.00;;
79790;SDS011;69278;52.220;5.172;2024-03-02T08:26:48;4.40;;;1.13;;
79790;SDS011;69278;52.220;5.172;2024-03-02T08:29:15;2.20;;;0.90;;
79790;SDS011;69278;52.220;5.172;2024-03-02T08:31:41;3.35;;;1.00;;
79790;SDS011;69278;52.220;5.172;2024-03-02T08:34:08;2.95;;;1.10;;
79790;SDS011;69278;52.220;5.172;2024-03-02T08:36:35;2.28;;;1.05;;
79790;SDS011;69278;52.220;5.172;2024-03-02T08:39:02;1.75;;;0.85;;
79790;SDS011;69278;52.220;5.172;2024-03-02T08:41:29;1.95;;;1.00;;
79790;SDS011;69278;52.220;5.172;2024-03-02T08:43:56;2.13;;;1.02;;
79790;SDS011;69278;52.220;5.172;2024-03-02T08:46:23;2.97;;;1.27;;
79790;SDS011;69278;52.220;5.172;2024-03-02T08:48:49;1.30;;;0.90;;
79790;SDS011;69278;52.220;5.172;2024-03-02T08:51:16;1.73;;;0.90;;
79790;SDS011;69278;52.220;5.172;2024-03-02T08:53:42;3.45;;;1.10;;
79790;SDS011;69278;52.220;5.172;2024-03-02T08:56:10;2.05;;;0.82;;
79790;SDS011;69278;52.220;5.172;2024-03-02T08:58:36;1.75;;;0.90;;
79790;SDS011;69278;52.220;5.172;2024-03-02T09:01:03;1.45;;;1.00;;
79790;SDS011;69278;52.220;5.172;2024-03-02T09:03:30;2.35;;;1.10;;
79790;SDS011;69278;52.220;5.172;2024-03-02T09:05:59;4.13;;;1.38;;
79790;SDS011;69278;52.220;5.172;2024-03-02T09:08:26;2.58;;;1.00;;
79790;SDS011;69278;52.220;5.172;2024-03-02T09:10:52;1.92;;;0.95;;
79790;SDS011;69278;52.220;5.172;2024-03-02T09:13:19;3.60;;;1.20;;
79790;SDS011;69278;52.220;5.172;2024-03-02T09:15:46;2.53;;;1.10;;
79790;SDS011;69278;52.220;5.172;2024-03-02T09:18:12;2.65;;;1.00;;
79790;SDS011;69278;52.220;5.172;2024-03-02T09:20:42;4.03;;;1.45;;
79790;SDS011;69278;52.220;5.172;2024-03-02T09:23:09;3.72;;;1.10;;
79790;SDS011;69278;52.220;5.172;2024-03-02T09:25:35;2.67;;;1.00;;
79790;SDS011;69278;52.220;5.172;2024-03-02T09:28:03;2.85;;;1.10;;
79790;SDS011;69278;52.220;5.172;2024-03-02T09:30:30;2.33;;;1.10;;
79790;SDS011;69278;52.220;5.172;2024-03-02T09:32:56;3.03;;;1.13;;
79790;SDS011;69278;52.220;5.172;2024-03-02T09:35:43;3.20;;;1.13;;
79790;SDS011;69278;52.220;5.172;2024-03-02T09:38:09;3.30;;;1.08;;
79790;SDS011;69278;52.220;5.172;2024-03-02T09:40:36;4.03;;;1.20;;
79790;SDS011;69278;52.220;5.172;2024-03-02T09:43:02;6.18;;;1.10;;
79790;SDS011;69278;52.220;5.172;2024-03-02T09:45:29;1.55;;;0.80;;
79790;SDS011;69278;52.220;5.172;2024-03-02T09:47:56;1.88;;;0.90;;
79790;SDS011;69278;52.220;5.172;2024-03-02T09:50:23;1.67;;;0.93;;
79790;SDS011;69278;52.220;5.172;2024-03-02T09:52:49;2.08;;;0.95;;
79790;SDS011;69278;52.220;5.172;2024-03-02T09:55:16;4.32;;;1.10;;
79790;SDS011;69278;52.220;5.172;2024-03-02T09:57:45;3.90;;;1.08;;
79790;SDS011;69278;52.220;5.172;2024-03-02T10:00:12;2.42;;;0.90;;
79790;SDS011;69278;52.220;5.172;2024-03-02T10:02:41;2.67;;;1.10;;
79790;SDS011;69278;52.220;5.172;2024-03-02T10:05:08;3.63;;;1.10;;
79790;SDS011;69278;52.220;5.172;2024-03-02T10:07:35;4.93;;;1.20;;
79790;SDS011;69278;52.220;5.172;2024-03-02T10:10:15;3.33;;;1.00;;
79790;SDS011;69278;52.220;5.172;2024-03-02T10:12:42;3.58;;;0.80;;
79790;SDS011;69278;52.220;5.172;2024-03-02T10:15:09;3.45;;;1.23;;
79790;SDS011;69278;52.220;5.172;2024-03-02T10:17:36;5.70;;;1.40;;
79790;SDS011;69278;52.220;5.172;2024-03-02T10:22:51;3.63;;;1.17;;
79790;SDS011;69278;52.220;5.172;2024-03-02T10:25:31;3.17;;;1.17;;
79790;SDS011;69278;52.220;5.172;2024-03-02T10:28:16;5.05;;;1.30;;
79790;SDS011;69278;52.220;5.172;2024-03-02T10:30:42;4.95;;;1.20;;
79790;SDS011;69278;52.220;5.172;2024-03-02T10:33:09;4.90;;;1.30;;
79790;SDS011;69278;52.220;5.172;2024-03-02T10:35:36;6.75;;;1.42;;
79790;SDS011;69278;52.220;5.172;2024-03-02T10:38:04;1.55;;;0.90;;
79790;SDS011;69278;52.220;5.172;2024-03-02T10:40:32;2.03;;;1.00;;
79790;SDS011;69278;52.220;5.172;2024-03-02T10:42:59;2.45;;;0.80;;
79790;SDS011;69278;52.220;5.172;2024-03-02T10:45:31;3.72;;;0.80;;
79790;SDS011;69278;52.220;5.172;2024-03-02T10:47:58;3.22;;;1.02;;
79790;SDS011;69278;52.220;5.172;2024-03-02T10:50:26;3.63;;;1.33;;
79790;SDS011;69278;52.220;5.172;2024-03-02T10:52:52;3.20;;;1.00;;
79790;SDS011;69278;52.220;5.172;2024-03-02T10:55:19;1.55;;;0.80;;
79790;SDS011;69278;52.220;5.172;2024-03-02T11:00:15;2.67;;;1.02;;
79790;SDS011;69278;52.220;5.172;2024-03-02T11:02:43;3.30;;;1.20;;
79790;SDS011;69278;52.220;5.172;2024-03-02T11:05:17;4.25;;;1.27;;
79790;SDS011;69278;52.220;5.172;2024-03-02T11:07:57;4.43;;;0.90;;
79790;SDS011;69278;52.220;5.172;2024-03-02T11:10:51;3.88;;;1.60;;
79790;SDS011;69278;52.220;5.172;2024-03-02T11:13:22;4.10;;;1.52;;
79790;SDS011;69278;52.220;5.172;2024-03-02T11:15:58;2.58;;;1.20;;
79790;SDS011;69278;52.220;5.172;2024-03-02T11:18:30;4.05;;;1.20;;
79790;SDS011;69278;52.220;5.172;2024-03-02T11:20:58;3.83;;;1.23;;
79790;SDS011;69278;52.220;5.172;2024-03-02T11:23:32;2.63;;;1.00;;
79790;SDS011;69278;52.220;5.172;2024-03-02T11:26:18;2.97;;;1.20;;
79790;SDS011;69278;52.220;5.172;2024-03-02T11:28:49;5.07;;;1.45;;
79790;SDS011;69278;52.220;5.172;2024-03-02T11:31:16;5.70;;;2.22;;
79790;SDS011;69278;52.220;5.172;2024-03-02T11:33:43;3.58;;;1.40;;
79790;SDS011;69278;52.220;5.172;2024-03-02T11:36:10;4.45;;;1.20;;
79790;SDS011;69278;52.220;5.172;2024-03-02T11:38:38;3.10;;;1.40;;
79790;SDS011;69278;52.220;5.172;2024-03-02T11:41:06;5.07;;;1.40;;
79790;SDS011;69278;52.220;5.172;2024-03-02T11:43:39;2.13;;;1.20;;
79790;SDS011;69278;52.220;5.172;2024-03-02T11:46:09;3.10;;;1.40;;
79790;SDS011;69278;52.220;5.172;2024-03-02T11:49:01;2.47;;;1.30;;
79790;SDS011;69278;52.220;5.172;2024-03-02T11:51:28;2.75;;;1.33;;
79790;SDS011;69278;52.220;5.172;2024-03-02T11:53:55;3.20;;;1.25;;
79790;SDS011;69278;52.220;5.172;2024-03-02T11:56:22;3.40;;;1.27;;
79790;SDS011;69278;52.220;5.172;2024-03-02T11:58:53;3.10;;;0.90;;
79790;SDS011;69278;52.220;5.172;2024-03-02T12:01:20;2.97;;;1.13;;
79790;SDS011;69278;52.220;5.172;2024-03-02T12:03:47;2.33;;;0.90;;
79790;SDS011;69278;52.220;5.172;2024-03-02T12:06:14;4.82;;;1.23;;
79790;SDS011;69278;52.220;5.172;2024-03-02T12:08:41;2.15;;;1.00;;
79790;SDS011;69278;52.220;5.172;2024-03-02T12:11:08;4.57;;;1.20;;
79790;SDS011;69278;52.220;5.172;2024-03-02T12:13:39;2.17;;;1.10;;
79790;SDS011;69278;52.220;5.172;2024-03-02T12:16:05;2.05;;;1.10;;
79790;SDS011;69278;52.220;5.172;2024-03-02T12:18:32;1.83;;;0.90;;
79790;SDS011;69278;52.220;5.172;2024-03-02T12:20:59;5.00;;;1.77;;
79790;SDS011;69278;52.220;5.172;2024-03-02T12:23:25;4.55;;;1.92;;
79790;SDS011;69278;52.220;5.172;2024-03-02T12:25:52;3.25;;;1.27;;
79790;SDS011;69278;52.220;5.172;2024-03-02T12:28:19;2.50;;;1.20;;
79790;SDS011;69278;52.220;5.172;2024-03-02T12:30:46;4.80;;;1.20;;
79790;SDS011;69278;52.220;5.172;2024-03-02T12:33:14;3.95;;;1.98;;
79790;SDS011;69278;52.220;5.172;2024-03-02T12:35:40;3.25;;;1.38;;
79790;SDS011;69278;52.220;5.172;2024-03-02T12:38:07;3.65;;;1.60;;
79790;SDS011;69278;52.220;5.172;2024-03-02T12:40:34;1.70;;;1.00;;
79790;SDS011;69278;52.220;5.172;2024-03-02T12:43:04;2.50;;;1.10;;
79790;SDS011;69278;52.220;5.172;2024-03-02T12:45:32;4.68;;;1.60;;
79790;SDS011;69278;52.220;5.172;2024-03-02T12:47:59;4.68;;;1.73;;
79790;SDS011;69278;52.220;5.172;2024-03-02T12:50:26;2.17;;;1.13;;
79790;SDS011;69278;52.220;5.172;2024-03-02T12:52:53;3.15;;;1.17;;
79790;SDS011;69278;52.220;5.172;2024-03-02T12:55:21;2.33;;;0.90;;
79790;SDS011;69278;52.220;5.172;2024-03-02T12:57:49;2.33;;;0.95;;
79790;SDS011;69278;52.220;5.172;2024-03-02T13:00:18;2.25;;;0.90;;
79790;SDS011;69278;52.220;5.172;2024-03-02T13:02:45;5.95;;;1.30;;
79790;SDS011;69278;52.220;5.172;2024-03-02T13:05:14;2.72;;;1.05;;
79790;SDS011;69278;52.220;5.172;2024-03-02T13:07:40;4.70;;;1.13;;
79790;SDS011;69278;52.220;5.172;2024-03-02T13:10:07;4.50;;;1.20;;
79790;SDS011;69278;52.220;5.172;2024-03-02T13:12:35;4.75;;;1.10;;
79790;SDS011;69278;52.220;5.172;2024-03-02T13:15:03;2.92;;;1.02;;
79790;SDS011;69278;52.220;5.172;2024-03-02T13:17:31;2.83;;;1.00;;
79790;SDS011;69278;52.220;5.172;2024-03-02T13:20:04;2.60;;;1.00;;
79790;SDS011;69278;52.220;5.172;2024-03-02T13:22:34;2.88;;;0.90;;
79790;SDS011;69278;52.220;5.172;2024-03-02T13:25:01;3.35;;;1.10;;
79790;SDS011;69278;52.220;5.172;2024-03-02T13:27:31;3.60;;;1.00;;
79790;SDS011;69278;52.220;5.172;2024-03-02T13:30:03;2.95;;;1.05;;
79790;SDS011;69278;52.220;5.172;2024-03-02T13:32:32;2.28;;;1.10;;
79790;SDS011;69278;52.220;5.172;2024-03-02T13:34:59;2.10;;;1.10;;
79790;SDS011;69278;52.220;5.172;2024-03-02T13:37:26;3.55;;;1.35;;
79790;SDS011;69278;52.220;5.172;2024-03-02T13:39:53;2.72;;;1.10;;
79790;SDS011;69278;52.220;5.172;2024-03-02T13:42:20;2.40;;;1.10;;
79790;SDS011;69278;52.220;5.172;2024-03-02T13:44:46;3.42;;;1.20;;
79790;SDS011;69278;52.220;5.172;2024-03-02T13:47:14;3.70;;;1.20;;
79790;SDS011;69278;52.220;5.172;2024-03-02T13:49:41;3.20;;;1.10;;
79790;SDS011;69278;52.220;5.172;2024-03-02T13:52:12;2.20;;;1.10;;
79790;SDS011;69278;52.220;5.172;2024-03-02T13:54:40;2.92;;;1.00;;
79790;SDS011;69278;52.220;5.172;2024-03-02T13:57:08;2.67;;;1.10;;
79790;SDS011;69278;52.220;5.172;2024-03-02T13:59:35;3.30;;;1.10;;
79790;SDS011;69278;52.220;5.172;2024-03-02T14:02:03;3.97;;;0.90;;
79790;SDS011;69278;52.220;5.172;2024-03-02T14:04:34;2.30;;;1.17;;
79790;SDS011;69278;52.220;5.172;2024-03-02T14:07:02;3.50;;;1.27;;
79790;SDS011;69278;52.220;5.172;2024-03-02T14:09:29;4.43;;;1.05;;
79790;SDS011;69278;52.220;5.172;2024-03-02T14:11:56;3.00;;;1.40;;
79790;SDS011;69278;52.220;5.172;2024-03-02T14:14:23;5.40;;;2.30;;
79790;SDS011;69278;52.220;5.172;2024-03-02T14:16:50;6.25;;;2.58;;
79790;SDS011;69278;52.220;5.172;2024-03-02T14:19:17;9.38;;;3.22;;
79790;SDS011;69278;52.220;5.172;2024-03-02T14:21:43;5.45;;;2.22;;
79790;SDS011;69278;52.220;5.172;2024-03-02T14:24:10;3.30;;;1.80;;
79790;SDS011;69278;52.220;5.172;2024-03-02T14:26:37;3.45;;;1.40;;
79790;SDS011;69278;52.220;5.172;2024-03-02T14:29:03;3.22;;;1.27;;
79790;SDS011;69278;52.220;5.172;2024-03-02T14:31:31;6.15;;;1.83;;
79790;SDS011;69278;52.220;5.172;2024-03-02T14:33:58;5.20;;;1.60;;
79790;SDS011;69278;52.220;5.172;2024-03-02T14:36:25;3.88;;;1.50;;
79790;SDS011;69278;52.220;5.172;2024-03-02T14:38:54;3.20;;;1.40;;
79790;SDS011;69278;52.220;5.172;2024-03-02T14:41:21;4.28;;;1.60;;
79790;SDS011;69278;52.220;5.172;2024-03-02T14:43:47;4.72;;;1.50;;
79790;SDS011;69278;52.220;5.172;2024-03-02T14:46:15;3.40;;;1.50;;
79790;SDS011;69278;52.220;5.172;2024-03-02T14:48:43;4.65;;;1.52;;
79790;SDS011;69278;52.220;5.172;2024-03-02T14:51:10;5.07;;;2.40;;
79790;SDS011;69278;52.220;5.172;2024-03-02T14:53:36;7.10;;;3.70;;
79790;SDS011;69278;52.220;5.172;2024-03-02T14:56:04;8.23;;;2.50;;
79790;SDS011;69278;52.220;5.172;2024-03-02T14:58:31;6.00;;;2.58;;
79790;SDS011;69278;52.220;5.172;2024-03-02T15:00:58;3.55;;;2.08;;